Time;durP1;ratioP1;P1;durP2;ratioP2;P2;SDS_P1;SDS_P2;PMS_P1;PMS_P2;Temp;Humidity;BMP_temperature;BMP_pressure;BME280_temperature;BME280_humidity;BME280_pressure;Samples;Min_cycle;Max_cycle;Signal;HPM_P1;HPM_P2
2023/01/26 00:00:47;;;;;;;;;;;29.00;97.80;;;;;;5090111;28;19914;-65
2023/01/26 00:03:14;;;;;;;;;;;29.10;97.70;;;;;;5093224;28;19916;-67
2023/01/26 00:05:41;;;;;;;;;;;29.30;97.40;;;;;;5092513;28;19919;-63
2023/01/26 00:08:07;;;;;;;;;;;29.40;98.00;;;;;;5090825;28;20031;-66
2023/01/26 00:10:38;;;;;;;;;;;29.60;97.10;;;;;;5092317;28;19915;-68
2023/01/26 00:13:05;;;;;;;;;;;29.70;96.90;;;;;;5092205;28;20381;-66
2023/01/26 00:15:33;;;;;;;;;;;29.80;96.60;;;;;;5092819;28;19908;-66
2023/01/26 00:18:00;;;;;;;;;;;29.80;95.90;;;;;;5082835;28;20487;-65
2023/01/26 00:20:27;;;;;;;;;;;29.90;95.70;;;;;;5073334;28;19919;-66
2023/01/26 00:22:53;;;;;;;;;;;30.00;95.60;;;;;;5073432;28;19920;-66
2023/01/26 00:25:20;;;;;;;;;;;30.20;95.60;;;;;;5073377;28;20370;-66
2023/01/26 00:27:47;;;;;;;;;;;30.30;95.50;;;;;;5073437;28;19940;-67
2023/01/26 00:30:14;;;;;;;;;;;30.50;94.60;;;;;;5073421;28;20015;-64
2023/01/26 00:32:40;;;;;;;;;;;30.60;94.30;;;;;;5073163;28;19912;-65
2023/01/26 00:35:07;;;;;;;;;;;30.80;94.40;;;;;;4950818;28;3490681;-66
2023/01/26 00:37:34;;;;;;;;;;;30.90;93.90;;;;;;5074346;28;20270;-64
2023/01/26 00:40:00;;;;;;;;;;;31.10;93.20;;;;;;5074300;28;20339;-66
2023/01/26 00:42:27;;;;;;;;;;;31.20;92.40;;;;;;5074219;28;19908;-65
2023/01/26 00:44:54;;;;;;;;;;;31.20;92.40;;;;;;5074140;28;19920;-66
2023/01/26 00:47:20;;;;;;;;;;;31.40;92.10;;;;;;5073701;28;20344;-66
2023/01/26 00:49:47;;;;;;;;;;;31.40;92.00;;;;;;5073915;28;19993;-65
2023/01/26 00:52:13;;;;;;;;;;;31.60;91.40;;;;;;5074136;28;20328;-66
2023/01/26 00:54:40;;;;;;;;;;;31.80;91.10;;;;;;5073989;28;19951;-66
2023/01/26 00:57:07;;;;;;;;;;;31.80;90.80;;;;;;5074072;28;19999;-65
2023/01/26 00:59:33;;;;;;;;;;;31.90;91.20;;;;;;5073882;28;19913;-66
2023/01/26 01:02:01;;;;;;;;;;;32.10;90.70;;;;;;5075211;28;20281;-65
2023/01/26 01:04:29;;;;;;;;;;;32.10;89.50;;;;;;5073029;28;20373;-65
2023/01/26 01:06:56;;;;;;;;;;;32.30;90.10;;;;;;5073945;28;20007;-66
2023/01/26 01:09:23;;;;;;;;;;;32.50;90.40;;;;;;5073427;28;19916;-66
2023/01/26 01:11:49;;;;;;;;;;;32.50;88.40;;;;;;5073731;28;20010;-67
2023/01/26 01:14:16;;;;;;;;;;;32.60;88.80;;;;;;5073547;28;19999;-66
2023/01/26 01:16:45;;;;;;;;;;;32.80;90.70;;;;;;5081350;28;19908;-66
2023/01/26 01:19:17;;;;;;;;;;;32.80;91.70;;;;;;5092363;28;19919;-67
2023/01/26 01:21:44;;;;;;;;;;;32.80;92.00;;;;;;5073076;28;19912;-65
2023/01/26 01:24:11;;;;;;;;;;;32.90;92.20;;;;;;5073272;28;19917;-67
2023/01/26 01:26:38;;;;;;;;;;;33.10;91.60;;;;;;5073681;28;19908;-67
2023/01/26 01:29:06;;;;;;;;;;;33.30;90.50;;;;;;5078279;28;19951;-66
2023/01/26 01:31:32;;;;;;;;;;;33.30;90.80;;;;;;5092990;28;19912;-65
2023/01/26 01:33:59;;;;;;;;;;;33.50;91.00;;;;;;5093219;28;20394;-66
2023/01/26 01:36:26;;;;;;;;;;;33.60;90.40;;;;;;5093018;28;19959;-65
2023/01/26 01:38:52;;;;;;;;;;;33.70;88.90;;;;;;5091675;28;20323;-66
2023/01/26 01:41:21;;;;;;;;;;;33.70;90.90;;;;;;5072642;28;20282;-65
2023/01/26 01:43:48;;;;;;;;;;;33.70;90.30;;;;;;5084412;28;19920;-65
2023/01/26 01:46:40;;;;;;;;;;;33.80;90.00;;;;;;5092661;28;19956;-65
2023/01/26 01:49:18;;;;;;;;;;;33.70;90.30;;;;;;5090783;28;19908;-65
2023/01/26 01:51:48;;;;;;;;;;;33.70;90.70;;;;;;5093090;28;20254;-66
2023/01/26 01:54:17;;;;;;;;;;;33.90;90.50;;;;;;5093149;28;20380;-66
2023/01/26 01:56:47;;;;;;;;;;;34.10;90.80;;;;;;5089546;28;19912;-66
2023/01/26 01:59:14;;;;;;;;;;;34.20;90.70;;;;;;5072331;28;19932;-64
2023/01/26 02:01:41;;;;;;;;;;;34.40;90.70;;;;;;5072761;28;20047;-65
2023/01/26 02:04:10;;;;;;;;;;;34.20;90.20;;;;;;5072805;28;19916;-65
2023/01/26 02:06:46;;;;;;;;;;;34.30;91.30;;;;;;5072746;28;19920;-66
2023/01/26 02:10:17;;;;;;;;;;;34.40;91.60;;;;;;5072887;28;19908;-66
2023/01/26 02:12:01;;;;;;;;;;;34.40;91.20;;;;;;5072557;28;19922;-65
2023/01/26 02:14:28;;;;;;;;;;;34.50;91.10;;;;;;5072412;28;20288;-65
2023/01/26 02:16:55;;;;;;;;;;;34.60;91.10;;;;;;5072857;28;19930;-65
2023/01/26 02:19:26;;;;;;;;;;;34.40;91.40;;;;;;5072569;28;19962;-67
2023/01/26 02:21:56;;;;;;;;;;;34.20;91.20;;;;;;5072452;28;20370;-64
2023/01/26 02:24:29;;;;;;;;;;;34.40;91.60;;;;;;5073568;28;20007;-66
2023/01/26 02:26:56;;;;;;;;;;;34.40;91.60;;;;;;5072479;28;19958;-67
2023/01/26 02:29:22;;;;;;;;;;;34.40;91.30;;;;;;5072754;28;20414;-66
2023/01/26 02:31:49;;;;;;;;;;;34.40;91.40;;;;;;5072337;28;19915;-67
2023/01/26 02:34:15;;;;;;;;;;;34.20;91.60;;;;;;5072248;28;19927;-66
2023/01/26 02:36:42;;;;;;;;;;;34.10;91.90;;;;;;5072506;28;19908;-67
2023/01/26 02:39:27;;;;;;;;;;;34.00;92.00;;;;;;5072102;28;19909;-66
2023/01/26 02:44:39;;;;;;;;;;;34.20;91.80;;;;;;5071980;28;20376;-65
2023/01/26 02:47:13;;;;;;;;;;;34.30;91.70;;;;;;5072301;28;20460;-66
2023/01/26 02:49:51;;;;;;;;;;;34.20;91.90;;;;;;5071951;28;19908;-65
2023/01/26 02:52:24;;;;;;;;;;;34.40;91.60;;;;;;5075107;28;20380;-66
2023/01/26 02:57:36;;;;;;;;;;;34.70;91.50;;;;;;5072734;28;19969;-66
2023/01/26 03:00:04;;;;;;;;;;;34.60;90.70;;;;;;5073165;28;20344;-65
2023/01/26 03:02:31;;;;;;;;;;;34.50;90.90;;;;;;5073957;28;19908;-66
2023/01/26 03:04:57;;;;;;;;;;;34.70;90.60;;;;;;5072456;28;19966;-67
2023/01/26 03:07:24;;;;;;;;;;;35.00;91.20;;;;;;5071887;28;19919;-68
2023/01/26 03:09:50;;;;;;;;;;;35.50;91.00;;;;;;5072049;28;20391;-66
2023/01/26 03:12:17;;;;;;;;;;;36.00;89.80;;;;;;5072409;28;19912;-65
2023/01/26 03:14:44;;;;;;;;;;;36.70;88.20;;;;;;5072430;28;19996;-65
2023/01/26 03:17:10;;;;;;;;;;;37.20;85.80;;;;;;5072362;28;20361;-66
2023/01/26 03:27:52;;;;;;;;;;;39.70;79.40;;;;;;5094995;28;19961;-65
2023/01/26 03:30:19;;;;;;;;;;;39.70;79.70;;;;;;5096005;28;19965;-66
2023/01/26 03:32:45;;;;;;;;;;;39.40;78.80;;;;;;5095806;28;20436;-66
2023/01/26 03:35:14;;;;;;;;;;;39.90;78.80;;;;;;5095346;28;19920;-65
2023/01/26 03:37:42;;;;;;;;;;;40.50;78.20;;;;;;5095875;28;19912;-66
2023/01/26 03:56:38;;;;;;;;;;;35.80;83.60;;;;;;5075191;28;20375;-65
2023/01/26 03:59:08;;;;;;;;;;;34.30;86.30;;;;;;5075287;28;19916;-64
2023/01/26 04:01:36;;;;;;;;;;;33.20;88.90;;;;;;5075243;28;19916;-64
2023/01/26 04:09:33;;;;;;;;;;;31.40;92.00;;;;;;5075438;28;20000;-64
2023/01/26 04:12:00;;;;;;;;;;;30.90;93.10;;;;;;5074753;28;19919;-66
2023/01/26 04:22:47;;;;;;;;;;;29.50;95.20;;;;;;5074921;28;20317;-65
2023/01/26 04:25:16;;;;;;;;;;;29.30;95.40;;;;;;5074484;28;20036;-65
2023/01/26 04:27:44;;;;;;;;;;;29.10;95.70;;;;;;5074450;28;19948;-64
2023/01/26 04:30:12;;;;;;;;;;;29.00;96.00;;;;;;5074638;28;19954;-65
2023/01/26 04:32:39;;;;;;;;;;;28.90;96.60;;;;;;5074592;28;19908;-66
2023/01/26 04:35:06;;;;;;;;;;;28.80;97.20;;;;;;5074212;28;19920;-66
2023/01/26 04:37:33;;;;;;;;;;;28.70;97.90;;;;;;5073686;28;20002;-65
2023/01/26 04:40:00;;;;;;;;;;;28.60;98.40;;;;;;5073456;28;19931;-64
2023/01/26 04:42:26;;;;;;;;;;;28.40;99.00;;;;;;5074125;28;19962;-66
2023/01/26 04:44:53;;;;;;;;;;;28.30;99.70;;;;;;5074083;28;19916;-65
2023/01/26 04:47:20;;;;;;;;;;;28.20;99.80;;;;;;5074128;28;19913;-64
2023/01/26 04:49:47;;;;;;;;;;;28.10;99.60;;;;;;5074027;28;19919;-65
2023/01/26 04:52:14;;;;;;;;;;;28.00;99.10;;;;;;5074341;28;19967;-65
2023/01/26 04:54:41;;;;;;;;;;;27.90;99.10;;;;;;5074030;28;20017;-65
2023/01/26 04:57:07;;;;;;;;;;;27.90;99.20;;;;;;5073886;28;19956;-65
2023/01/26 04:59:34;;;;;;;;;;;27.90;98.80;;;;;;5073916;28;19909;-65
2023/01/26 05:02:01;;;;;;;;;;;28.00;98.80;;;;;;5074039;28;20262;-65
2023/01/26 05:04:27;;;;;;;;;;;28.10;98.80;;;;;;5073880;28;19938;-64
2023/01/26 05:06:54;;;;;;;;;;;28.20;99.10;;;;;;5074752;28;19912;-64
2023/01/26 05:09:21;;;;;;;;;;;28.40;99.00;;;;;;5073592;28;19912;-66
2023/01/26 05:11:47;;;;;;;;;;;28.60;99.40;;;;;;5073688;28;19962;-66
2023/01/26 05:14:14;;;;;;;;;;;29.00;98.80;;;;;;5073703;28;19920;-64
2023/01/26 05:16:41;;;;;;;;;;;29.60;98.00;;;;;;5073494;28;19916;-66
2023/01/26 05:19:08;;;;;;;;;;;30.40;97.20;;;;;;5073317;28;19951;-64
2023/01/26 05:21:34;;;;;;;;;;;30.80;96.30;;;;;;5073355;28;19963;-65
2023/01/26 05:24:01;;;;;;;;;;;30.80;95.60;;;;;;5073195;28;19923;-66
2023/01/26 05:26:27;;;;;;;;;;;30.60;96.20;;;;;;5073473;28;20375;-68
2023/01/26 05:28:55;;;;;;;;;;;30.60;96.80;;;;;;5073509;28;19940;-66
2023/01/26 05:31:22;;;;;;;;;;;30.90;96.00;;;;;;5073333;28;20013;-64
2023/01/26 05:33:48;;;;;;;;;;;31.00;95.30;;;;;;5072922;28;19913;-65
2023/01/26 05:36:15;;;;;;;;;;;30.80;95.20;;;;;;5073306;28;19954;-64
2023/01/26 05:38:41;;;;;;;;;;;30.70;95.70;;;;;;5078677;28;19935;-65
2023/01/26 05:41:08;;;;;;;;;;;30.90;95.90;;;;;;5093254;28;19958;-65
2023/01/26 05:43:35;;;;;;;;;;;31.70;96.10;;;;;;5093140;28;19955;-64
2023/01/26 05:46:01;;;;;;;;;;;32.40;94.40;;;;;;5093248;28;19915;-65
2023/01/26 05:48:28;;;;;;;;;;;32.70;93.20;;;;;;5093367;28;19943;-65
2023/01/26 05:50:56;;;;;;;;;;;33.00;93.80;;;;;;5093092;28;19909;-65
2023/01/26 05:53:23;;;;;;;;;;;34.00;92.20;;;;;;5092973;28;19920;-66
2023/01/26 05:55:49;;;;;;;;;;;34.60;91.80;;;;;;5093221;28;20292;-64
2023/01/26 05:58:16;;;;;;;;;;;34.90;90.10;;;;;;5092063;28;19912;-67
2023/01/26 06:00:42;;;;;;;;;;;34.80;90.30;;;;;;5092446;28;20388;-65
2023/01/26 06:03:09;;;;;;;;;;;35.00;90.10;;;;;;5092944;28;19916;-65
2023/01/26 06:05:37;;;;;;;;;;;35.30;88.20;;;;;;5093102;28;20391;-64
2023/01/26 06:08:04;;;;;;;;;;;35.00;88.30;;;;;;5092651;28;19947;-65
2023/01/26 06:10:30;;;;;;;;;;;34.10;90.10;;;;;;5092456;28;19995;-66
2023/01/26 06:12:58;;;;;;;;;;;33.60;90.70;;;;;;5092835;28;19909;-66
2023/01/26 06:15:24;;;;;;;;;;;33.20;91.40;;;;;;5092568;28;19919;-65
2023/01/26 06:17:51;;;;;;;;;;;32.80;92.20;;;;;;5092645;28;19950;-65
2023/01/26 06:20:18;;;;;;;;;;;32.50;93.10;;;;;;5092772;28;20455;-65
2023/01/26 06:22:44;;;;;;;;;;;32.50;92.80;;;;;;5092841;28;20003;-64
2023/01/26 06:25:11;;;;;;;;;;;32.50;92.90;;;;;;5092954;28;20003;-66
2023/01/26 06:27:40;;;;;;;;;;;32.50;92.80;;;;;;5092960;28;20007;-65
2023/01/26 06:30:08;;;;;;;;;;;32.30;92.90;;;;;;5092843;28;20254;-65
2023/01/26 06:32:36;;;;;;;;;;;32.20;93.10;;;;;;5092684;28;19951;-66
2023/01/26 06:35:05;;;;;;;;;;;31.90;93.50;;;;;;5091982;28;20008;-65
2023/01/26 06:37:32;;;;;;;;;;;31.50;93.50;;;;;;5092549;28;19909;-66
2023/01/26 06:39:58;;;;;;;;;;;31.10;94.10;;;;;;5091938;28;19908;-66
2023/01/26 06:42:25;;;;;;;;;;;30.50;94.90;;;;;;5091556;28;19916;-67
2023/01/26 06:44:52;;;;;;;;;;;30.20;95.70;;;;;;5091775;28;19924;-66
2023/01/26 06:47:18;;;;;;;;;;;30.00;96.20;;;;;;5092480;28;19908;-67
2023/01/26 06:49:45;;;;;;;;;;;29.80;96.60;;;;;;5092595;28;19909;-66
2023/01/26 06:52:26;;;;;;;;;;;29.70;96.60;;;;;;5092361;28;19908;-66
2023/01/26 06:54:52;;;;;;;;;;;29.50;96.40;;;;;;5092106;28;19934;-66
2023/01/26 06:57:19;;;;;;;;;;;29.10;97.20;;;;;;5092269;28;19963;-66
2023/01/26 06:59:45;;;;;;;;;;;28.80;97.40;;;;;;5093426;28;20003;-66
2023/01/26 07:02:21;;;;;;;;;;;28.50;98.20;;;;;;5094370;28;19912;-66
2023/01/26 07:04:49;;;;;;;;;;;28.30;98.80;;;;;;5096413;28;19984;-66
2023/01/26 07:07:16;;;;;;;;;;;28.30;99.10;;;;;;5095947;28;19915;-65
2023/01/26 07:09:42;;;;;;;;;;;28.20;99.20;;;;;;5096097;28;19908;-65
2023/01/26 07:12:09;;;;;;;;;;;28.20;99.40;;;;;;5096386;28;19916;-66
2023/01/26 07:14:36;;;;;;;;;;;28.20;99.70;;;;;;5093820;28;19950;-65
2023/01/26 07:17:02;;;;;;;;;;;28.20;99.90;;;;;;5095916;28;19920;-66
2023/01/26 07:19:31;;;;;;;;;;;28.20;99.90;;;;;;5096396;28;19912;-65
2023/01/26 07:21:58;;;;;;;;;;;28.30;99.90;;;;;;5096194;28;19908;-65
2023/01/26 07:24:25;;;;;;;;;;;28.20;99.90;;;;;;5095949;28;20287;-66
2023/01/26 07:26:51;;;;;;;;;;;28.30;99.90;;;;;;5095980;28;19999;-64
2023/01/26 07:29:18;;;;;;;;;;;28.30;99.90;;;;;;5095854;28;19961;-65
2023/01/26 07:31:45;;;;;;;;;;;28.40;99.90;;;;;;5095937;28;19912;-66
2023/01/26 07:34:12;;;;;;;;;;;28.40;99.90;;;;;;5085049;28;19921;-66
2023/01/26 07:36:38;;;;;;;;;;;28.50;99.90;;;;;;5075312;28;19909;-65
2023/01/26 07:39:05;;;;;;;;;;;28.40;99.90;;;;;;5075365;28;19995;-65
2023/01/26 07:41:32;;;;;;;;;;;28.40;99.90;;;;;;5074242;28;19938;-66
2023/01/26 07:43:59;;;;;;;;;;;28.40;99.90;;;;;;5075102;28;19921;-66
2023/01/26 07:46:25;;;;;;;;;;;28.40;99.90;;;;;;5075097;28;20369;-66
2023/01/26 07:48:52;;;;;;;;;;;28.30;99.90;;;;;;5075054;28;19912;-66
2023/01/26 07:51:19;;;;;;;;;;;28.20;99.90;;;;;;5075084;28;20369;-66
2023/01/26 07:53:48;;;;;;;;;;;28.20;99.90;;;;;;5075086;28;19938;-66
2023/01/26 07:56:16;;;;;;;;;;;28.20;99.90;;;;;;5075808;28;20364;-65
2023/01/26 07:58:42;;;;;;;;;;;28.20;99.90;;;;;;5075123;28;19920;-65
2023/01/26 08:01:10;;;;;;;;;;;28.20;99.90;;;;;;5075236;28;20003;-66
2023/01/26 08:03:37;;;;;;;;;;;28.30;99.90;;;;;;5075302;28;19978;-65
2023/01/26 08:06:04;;;;;;;;;;;28.30;99.90;;;;;;5075130;28;19909;-64
2023/01/26 08:08:31;;;;;;;;;;;28.30;99.90;;;;;;5074316;28;19912;-66
2023/01/26 08:10:59;;;;;;;;;;;28.20;99.90;;;;;;5074666;28;19912;-64
2023/01/26 08:13:29;;;;;;;;;;;28.20;99.90;;;;;;5074468;28;20328;-65
2023/01/26 08:16:09;;;;;;;;;;;28.10;99.90;;;;;;5074905;28;19913;-65
2023/01/26 08:18:36;;;;;;;;;;;27.90;99.90;;;;;;5075041;28;20303;-66
2023/01/26 08:21:03;;;;;;;;;;;27.90;99.90;;;;;;5074511;28;19910;-66
2023/01/26 08:23:30;;;;;;;;;;;27.90;99.90;;;;;;5074576;28;19923;-66
2023/01/26 08:26:07;;;;;;;;;;;27.90;99.90;;;;;;5073341;28;19916;-66
2023/01/26 08:28:34;;;;;;;;;;;27.90;99.90;;;;;;5074573;28;19916;-66
2023/01/26 08:31:12;;;;;;;;;;;27.80;99.90;;;;;;5074586;28;19999;-65
2023/01/26 08:33:39;;;;;;;;;;;27.80;99.90;;;;;;5074647;28;19908;-65
2023/01/26 08:36:07;;;;;;;;;;;27.80;99.90;;;;;;5074589;28;19927;-65
2023/01/26 08:38:34;;;;;;;;;;;27.70;99.90;;;;;;5073262;28;19940;-65
2023/01/26 08:41:01;;;;;;;;;;;27.70;99.90;;;;;;5074588;28;20782;-67
2023/01/26 08:43:28;;;;;;;;;;;27.70;99.90;;;;;;5074120;28;20396;-66
2023/01/26 08:45:54;;;;;;;;;;;27.70;99.90;;;;;;5074161;28;19962;-64
2023/01/26 08:48:21;;;;;;;;;;;27.70;99.90;;;;;;5073472;28;19913;-66
2023/01/26 08:50:48;;;;;;;;;;;27.60;99.90;;;;;;5073981;28;19908;-65
2023/01/26 08:53:14;;;;;;;;;;;27.50;99.90;;;;;;5074186;28;19913;-66
2023/01/26 08:55:41;;;;;;;;;;;27.40;99.90;;;;;;5073867;28;19962;-65
2023/01/26 08:58:08;;;;;;;;;;;27.20;99.90;;;;;;5074127;28;19909;-65
2023/01/26 09:00:34;;;;;;;;;;;27.10;99.90;;;;;;5073990;28;19909;-66
2023/01/26 09:03:02;;;;;;;;;;;27.00;99.90;;;;;;5073542;28;19958;-64
2023/01/26 09:05:31;;;;;;;;;;;26.80;99.90;;;;;;5073772;28;19961;-65
2023/01/26 09:07:58;;;;;;;;;;;26.70;99.90;;;;;;5073517;28;19967;-66
2023/01/26 09:10:24;;;;;;;;;;;26.60;99.90;;;;;;5073405;28;20380;-67
2023/01/26 09:12:51;;;;;;;;;;;26.50;99.90;;;;;;5073920;28;20002;-66
2023/01/26 09:15:18;;;;;;;;;;;26.50;99.90;;;;;;5073824;28;20321;-66
2023/01/26 09:17:47;;;;;;;;;;;26.40;99.90;;;;;;5073688;28;19965;-65
2023/01/26 09:20:14;;;;;;;;;;;26.30;99.90;;;;;;5073376;28;19920;-65
2023/01/26 09:22:41;;;;;;;;;;;26.30;99.90;;;;;;5074444;28;19919;-67
2023/01/26 09:25:08;;;;;;;;;;;26.10;99.90;;;;;;5072826;28;19916;-66
2023/01/26 09:27:35;;;;;;;;;;;26.00;99.90;;;;;;5073228;28;19981;-66
2023/01/26 09:30:03;;;;;;;;;;;26.10;99.90;;;;;;5073159;28;19919;-65
2023/01/26 09:32:29;;;;;;;;;;;26.00;99.90;;;;;;5072142;28;19913;-65
2023/01/26 09:34:56;;;;;;;;;;;25.90;99.90;;;;;;5073003;28;19920;-65
2023/01/26 09:37:23;;;;;;;;;;;25.80;99.90;;;;;;5072811;28;19927;-66
2023/01/26 09:39:49;;;;;;;;;;;25.80;99.90;;;;;;5073221;28;19998;-64
2023/01/26 09:42:30;;;;;;;;;;;25.70;99.90;;;;;;5074208;28;20018;-65
2023/01/26 09:45:04;;;;;;;;;;;25.80;99.90;;;;;;5072912;28;19943;-66
2023/01/26 09:47:35;;;;;;;;;;;25.80;99.90;;;;;;5072716;28;19913;-66
2023/01/26 09:50:07;;;;;;;;;;;25.80;99.90;;;;;;5072810;28;19919;-64
2023/01/26 09:52:38;;;;;;;;;;;25.80;99.90;;;;;;5073164;28;19912;-64
2023/01/26 09:55:11;;;;;;;;;;;25.80;99.90;;;;;;5073475;28;19916;-65
2023/01/26 09:57:38;;;;;;;;;;;25.80;99.90;;;;;;5072817;28;19912;-66
2023/01/26 10:00:08;;;;;;;;;;;25.80;99.90;;;;;;5072842;28;19995;-65
2023/01/26 10:02:41;;;;;;;;;;;25.90;99.90;;;;;;5072977;28;19915;-65
2023/01/26 10:05:15;;;;;;;;;;;25.90;99.90;;;;;;5072962;28;20003;-66
2023/01/26 10:07:44;;;;;;;;;;;25.80;99.90;;;;;;5072137;28;20433;-66
2023/01/26 10:10:26;;;;;;;;;;;25.90;99.90;;;;;;5087531;28;19909;-64
2023/01/26 10:12:54;;;;;;;;;;;25.80;99.90;;;;;;5092777;28;20360;-65
2023/01/26 10:15:21;;;;;;;;;;;25.90;99.90;;;;;;5092541;28;19909;-64
2023/01/26 10:17:48;;;;;;;;;;;25.90;99.90;;;;;;5085679;28;19913;-65
2023/01/26 10:20:15;;;;;;;;;;;25.80;99.90;;;;;;5092833;28;19956;-66
2023/01/26 10:22:44;;;;;;;;;;;25.80;99.90;;;;;;5084619;28;19919;-64
2023/01/26 10:25:16;;;;;;;;;;;25.80;99.90;;;;;;5090999;28;19916;-65
2023/01/26 10:27:44;;;;;;;;;;;25.80;99.90;;;;;;5088854;28;19908;-66
2023/01/26 10:30:15;;;;;;;;;;;25.80;99.90;;;;;;5091014;28;19908;-66
2023/01/26 10:32:43;;;;;;;;;;;25.80;99.90;;;;;;5080793;28;19912;-64
2023/01/26 10:35:15;;;;;;;;;;;25.90;99.90;;;;;;5071571;28;20308;-64
2023/01/26 10:37:42;;;;;;;;;;;25.90;99.90;;;;;;5076129;28;19959;-64
2023/01/26 10:40:09;;;;;;;;;;;25.90;99.90;;;;;;5075859;28;20001;-64
2023/01/26 10:42:37;;;;;;;;;;;25.90;99.90;;;;;;5075957;28;20438;-64
2023/01/26 10:45:21;;;;;;;;;;;25.90;99.90;;;;;;5075721;28;19925;-64
2023/01/26 10:48:08;;;;;;;;;;;25.90;99.90;;;;;;5075869;28;19948;-62
2023/01/26 10:50:34;;;;;;;;;;;25.80;99.90;;;;;;5075236;28;19916;-64
2023/01/26 10:53:02;;;;;;;;;;;25.70;99.90;;;;;;5075728;28;19912;-64
2023/01/26 10:55:30;;;;;;;;;;;25.70;99.90;;;;;;5075818;28;19908;-64
2023/01/26 10:57:57;;;;;;;;;;;25.60;99.90;;;;;;5077557;28;19918;-66
2023/01/26 11:00:27;;;;;;;;;;;25.50;99.90;;;;;;5078195;28;19960;-64
2023/01/26 11:03:12;;;;;;;;;;;25.40;99.90;;;;;;5082217;28;19916;-65
2023/01/26 11:05:38;;;;;;;;;;;25.20;99.90;;;;;;5095505;28;20368;-64
2023/01/26 11:08:25;;;;;;;;;;;25.00;99.90;;;;;;5095300;28;19908;-65
2023/01/26 11:10:52;;;;;;;;;;;24.80;99.90;;;;;;5091308;28;20272;-64
2023/01/26 11:13:20;;;;;;;;;;;24.70;99.90;;;;;;5076141;28;20329;-65
2023/01/26 11:16:05;;;;;;;;;;;24.50;99.90;;;;;;5080533;28;20388;-66
2023/01/26 11:18:52;;;;;;;;;;;24.50;99.90;;;;;;5082293;28;19951;-63
2023/01/26 11:21:18;;;;;;;;;;;24.40;99.90;;;;;;5095648;28;19916;-65
2023/01/26 11:23:52;;;;;;;;;;;24.40;99.90;;;;;;5080924;28;19975;-65
2023/01/26 11:26:31;;;;;;;;;;;24.40;99.90;;;;;;5075355;28;19908;-66
2023/01/26 11:29:07;;;;;;;;;;;24.30;99.90;;;;;;5074852;28;19959;-65
2023/01/26 11:31:42;;;;;;;;;;;24.40;99.90;;;;;;5075914;28;20369;-65
2023/01/26 11:34:25;;;;;;;;;;;24.30;99.90;;;;;;5074077;28;20371;-64
2023/01/26 11:37:12;;;;;;;;;;;24.20;99.90;;;;;;5074286;28;20012;-64
2023/01/26 11:39:38;;;;;;;;;;;24.20;99.90;;;;;;5074442;28;19912;-64
2023/01/26 11:42:05;;;;;;;;;;;24.20;99.90;;;;;;5074988;28;19916;-64
2023/01/26 11:44:52;;;;;;;;;;;24.10;99.90;;;;;;5095313;28;19917;-64
2023/01/26 11:47:25;;;;;;;;;;;24.00;99.90;;;;;;5094487;28;19908;-63
2023/01/26 11:49:57;;;;;;;;;;;23.90;99.90;;;;;;5094884;28;19908;-65
2023/01/26 11:52:24;;;;;;;;;;;23.90;99.90;;;;;;5094708;28;19953;-64
2023/01/26 11:55:08;;;;;;;;;;;23.90;99.90;;;;;;5094682;28;20377;-65
2023/01/26 11:57:42;;;;;;;;;;;23.90;99.90;;;;;;5095108;28;20006;-64
2023/01/26 12:00:24;;;;;;;;;;;23.80;99.90;;;;;;5094798;28;20280;-65
2023/01/26 12:02:58;;;;;;;;;;;23.80;99.90;;;;;;5079734;28;20357;-65
2023/01/26 12:05:30;;;;;;;;;;;23.70;99.90;;;;;;5074717;28;19912;-65
2023/01/26 12:08:01;;;;;;;;;;;23.70;99.90;;;;;;5074622;28;19917;-65
2023/01/26 12:10:40;;;;;;;;;;;23.70;99.90;;;;;;5073926;28;19930;-66
2023/01/26 12:13:15;;;;;;;;;;;23.80;99.90;;;;;;5074399;28;19908;-65
2023/01/26 12:15:46;;;;;;;;;;;23.70;99.90;;;;;;5074205;28;19962;-65
2023/01/26 12:18:22;;;;;;;;;;;23.70;99.90;;;;;;5074746;28;19909;-65
2023/01/26 12:20:50;;;;;;;;;;;23.70;99.90;;;;;;5074291;28;19952;-64
2023/01/26 12:23:19;;;;;;;;;;;23.70;99.90;;;;;;5073064;28;19925;-64
2023/01/26 12:25:50;;;;;;;;;;;23.60;99.90;;;;;;5074600;28;19913;-64
2023/01/26 12:28:16;;;;;;;;;;;23.60;99.90;;;;;;5074539;28;19909;-65
2023/01/26 12:30:50;;;;;;;;;;;23.70;99.90;;;;;;5074174;28;19912;-64
2023/01/26 12:33:17;;;;;;;;;;;23.60;99.90;;;;;;5073611;28;19999;-64
2023/01/26 12:35:49;;;;;;;;;;;23.60;99.90;;;;;;5073948;28;19925;-64
2023/01/26 12:38:17;;;;;;;;;;;23.60;99.90;;;;;;5073958;28;19908;-65
2023/01/26 12:40:49;;;;;;;;;;;23.60;99.90;;;;;;5073801;28;20373;-66
2023/01/26 12:43:16;;;;;;;;;;;23.60;99.90;;;;;;5073982;28;20330;-67
2023/01/26 12:45:45;;;;;;;;;;;23.60;99.90;;;;;;5074157;28;19997;-65
2023/01/26 12:48:21;;;;;;;;;;;23.60;99.90;;;;;;5073672;28;20342;-66
2023/01/26 12:50:51;;;;;;;;;;;23.60;99.90;;;;;;5073961;28;19908;-65
2023/01/26 12:53:41;;;;;;;;;;;23.60;99.90;;;;;;5073714;28;19948;-66
2023/01/26 12:56:10;;;;;;;;;;;23.60;99.90;;;;;;5073450;28;19923;-66
2023/01/26 12:58:41;;;;;;;;;;;23.60;99.90;;;;;;5073615;28;19912;-66
2023/01/26 13:01:10;;;;;;;;;;;23.60;99.90;;;;;;5073139;28;19909;-66
2023/01/26 13:03:38;;;;;;;;;;;23.60;99.90;;;;;;5073023;28;20310;-65
2023/01/26 13:06:14;;;;;;;;;;;23.60;99.90;;;;;;5073561;28;19916;-66
2023/01/26 13:08:50;;;;;;;;;;;23.50;99.90;;;;;;5073216;28;19991;-66
2023/01/26 13:11:39;;;;;;;;;;;23.50;99.90;;;;;;5072963;28;19912;-65
2023/01/26 13:14:23;;;;;;;;;;;23.60;99.90;;;;;;5067596;28;19986;-64
2023/01/26 13:16:50;;;;;;;;;;;23.60;99.90;;;;;;5073278;28;19915;-65
2023/01/26 13:19:35;;;;;;;;;;;23.50;99.90;;;;;;5073033;28;20353;-65
2023/01/26 13:22:02;;;;;;;;;;;23.60;99.90;;;;;;5072698;28;19913;-65
2023/01/26 13:24:28;;;;;;;;;;;23.50;99.90;;;;;;5073087;28;19923;-65
2023/01/26 13:26:56;;;;;;;;;;;23.50;99.90;;;;;;5073199;28;19908;-65
2023/01/26 13:29:32;;;;;;;;;;;23.50;99.90;;;;;;5073119;28;19908;-65
2023/01/26 13:32:21;;;;;;;;;;;23.50;99.90;;;;;;5088561;28;19912;-65
2023/01/26 13:34:58;;;;;;;;;;;23.50;99.90;;;;;;5092998;28;19920;-65
2023/01/26 13:37:27;;;;;;;;;;;23.50;99.90;;;;;;5092207;28;19912;-65
2023/01/26 13:40:14;;;;;;;;;;;23.50;99.90;;;;;;5073102;28;19912;-65
2023/01/26 13:42:48;;;;;;;;;;;23.50;99.90;;;;;;5072255;28;19912;-65
2023/01/26 13:45:18;;;;;;;;;;;23.60;99.90;;;;;;5072775;28;20234;-65
2023/01/26 13:47:47;;;;;;;;;;;23.60;99.90;;;;;;5073165;28;19947;-64
2023/01/26 13:50:32;;;;;;;;;;;23.60;99.90;;;;;;5073086;28;20007;-64
2023/01/26 13:53:00;;;;;;;;;;;23.60;99.90;;;;;;5072805;28;19915;-65
2023/01/26 13:55:30;;;;;;;;;;;23.70;99.90;;;;;;5072965;28;20002;-64
2023/01/26 13:58:13;;;;;;;;;;;23.70;99.90;;;;;;5072434;28;19916;-64
2023/01/26 14:00:40;;;;;;;;;;;23.70;99.90;;;;;;5072502;28;19909;-65
2023/01/26 14:03:27;;;;;;;;;;;23.70;99.90;;;;;;5072504;28;20016;-64
2023/01/26 14:05:55;;;;;;;;;;;23.70;99.90;;;;;;5072059;28;19918;-64
2023/01/26 14:08:22;;;;;;;;;;;23.70;99.90;;;;;;5072001;28;19909;-65
2023/01/26 14:10:50;;;;;;;;;;;23.70;99.90;;;;;;5071763;28;20368;-65
2023/01/26 14:13:46;;;;;;;;;;;23.80;99.90;;;;;;5072250;28;19920;-65
2023/01/26 14:16:20;;;;;;;;;;;23.80;99.90;;;;;;5063726;28;19912;-65
2023/01/26 14:18:49;;;;;;;;;;;23.70;99.90;;;;;;5072589;28;19965;-66
2023/01/26 14:21:18;;;;;;;;;;;23.70;99.90;;;;;;5072393;28;19915;-65
2023/01/26 14:23:45;;;;;;;;;;;23.70;99.90;;;;;;5072321;28;19939;-65
2023/01/26 14:26:19;;;;;;;;;;;23.70;99.90;;;;;;5072225;28;19919;-64
2023/01/26 14:28:46;;;;;;;;;;;23.70;99.90;;;;;;5072257;28;19908;-64
2023/01/26 14:31:20;;;;;;;;;;;23.70;99.90;;;;;;5072272;28;19913;-65
2023/01/26 14:33:48;;;;;;;;;;;23.70;99.90;;;;;;5071989;28;20002;-65
2023/01/26 14:36:16;;;;;;;;;;;23.70;99.90;;;;;;5072239;28;19936;-67
2023/01/26 14:38:44;;;;;;;;;;;23.70;99.90;;;;;;5071948;28;19995;-67
2023/01/26 14:41:18;;;;;;;;;;;23.60;99.90;;;;;;5072325;28;20255;-66
2023/01/26 14:43:45;;;;;;;;;;;23.60;99.90;;;;;;5072109;28;19913;-65
2023/01/26 14:46:15;;;;;;;;;;;23.60;99.90;;;;;;5072212;28;19912;-65
2023/01/26 14:48:44;;;;;;;;;;;23.70;99.90;;;;;;5072199;28;20319;-67
2023/01/26 14:51:21;;;;;;;;;;;23.60;99.90;;;;;;5072319;28;20315;-66
2023/01/26 14:53:52;;;;;;;;;;;23.60;99.90;;;;;;5073271;28;19908;-65
2023/01/26 14:56:20;;;;;;;;;;;23.70;99.90;;;;;;5075432;28;19956;-64
2023/01/26 14:58:49;;;;;;;;;;;23.70;99.90;;;;;;5094609;28;19922;-65
2023/01/26 15:01:23;;;;;;;;;;;23.70;99.90;;;;;;5092615;28;20438;-64
2023/01/26 15:03:55;;;;;;;;;;;23.70;99.90;;;;;;5092284;28;19962;-66
2023/01/26 15:06:26;;;;;;;;;;;23.70;99.90;;;;;;5092436;28;20322;-67
2023/01/26 15:08:55;;;;;;;;;;;23.70;99.90;;;;;;5091813;28;19914;-65
2023/01/26 15:14:29;;;;;;;;;;;23.60;99.90;;;;;;5092030;28;19939;-66
2023/01/26 15:16:55;;;;;;;;;;;23.60;99.90;;;;;;5091946;28;19915;-66